Latest Coastal Weather Observations for Port Fairy

IDV60701

Issued at 2:21 pm EDT Wednesday 1 April 2015 (issued every 10 minutes, with the page automatically refreshed every 10 minutes)

About coastal observations | Map of coastal stations | Coastal observations for VIC | Marine services | Other Formats
Station Details ID: 090175 Name: PORT FAIRY AWS Lat: -38.39 Lon: 142.23 Height: 10.0 m
Data from the previous 72 hours. | See also: Recent months at Port Fairy
Date/Time
EDT
Temp

°C
Wind Pressure Rain
since 9am
mm
Weather Cloud Vis
km
Sea
Height
m
Swell
Dir
 
Speed
knots
Gust
knots
hPa Trend Height
m
Period
s
Dir
01/02:00pm 27.7 NNW 12 21 1011.2 - 0.0 - - - - - - -
01/01:30pm 27.4 NNW 13 19 1011.9 - 0.0 - - - - - - -
01/01:16pm 27.4 NNW 15 28 1012.1 - 0.0 - - - - - - -
01/01:00pm 27.1 NNW 11 18 1012.4 - 0.0 - - - - - - -
01/12:30pm 26.0 N 12 19 1012.6 - 0.0 - - - - - - -
01/12:00pm 26.2 N 16 29 1012.9 - 0.0 - - - - - - -
01/11:32am 26.8 N 16 27 1013.1 - 0.0 - - - - - - -
01/11:30am 26.9 N 15 24 1013.2 - 0.0 - - - - - - -
01/11:00am 24.8 N 13 21 1013.8 - 0.0 - - - - - - -
01/10:30am 24.5 N 14 22 1014.4 - 0.0 - - - - - - -
01/10:00am 22.8 N 11 17 1014.5 - 0.0 - - - - - - -
01/09:30am 20.7 N 9 13 1014.8 - 0.0 - - - - - - -
01/09:00am 19.6 N 9 13 1015.0 - 0.0 - - - - - - -
01/08:30am 17.1 N 8 11 1015.1 - 0.0 - - - - - - -
01/08:00am 14.5 NNE 5 7 1015.4 - 0.0 - - - - - - -
01/07:30am 14.8 NNE 6 8 1015.7 - 0.0 - - - - - - -
01/07:00am 14.5 N 7 9 1015.7 - 0.0 - - - - - - -
01/06:30am 13.7 N 6 9 1015.9 - 0.0 - - - - - - -
01/06:00am 13.1 N 5 6 1016.0 - 0.0 - - - - - - -
01/05:30am 13.7 N 4 5 1016.3 - 0.0 - - - - - - -
01/05:00am 12.9 NNE 2 4 1016.4 - 0.0 - - - - - - -
01/04:30am 12.9 NNE 2 3 1016.9 - 0.0 - - - - - - -
01/04:00am 12.8 NNE 3 3 1017.4 - 0.0 - - - - - - -
01/03:30am 13.6 NNE 2 3 1017.8 - 0.0 - - - - - - -
01/03:00am 14.1 NNE 4 6 1018.1 - 0.0 - - - - - - -
01/02:30am 14.7 NE 6 8 1018.6 - 0.0 - - - - - - -
01/02:00am 15.2 NNE 6 8 1018.9 - 0.0 - - - - - - -
01/01:30am 15.7 NE 4 6 1019.3 - 0.0 - - - - - - -
01/01:00am 15.5 ENE 4 6 1019.6 - 0.0 - - - - - - -
01/12:30am 15.6 NE 3 4 1020.0 - 0.0 - - - - - - -
01/12:00am 16.2 E 3 3 1020.5 - 0.0 - - - - - - -
 
Date/Time
EDT
Temp

°C
Wind Pressure Rain
since 9am
mm
Weather Cloud Vis
km
Sea
Height
m
Swell
Dir
 
Speed
knots
Gust
knots
hPa Trend Height
m
Period
s
Dir
31/11:30pm 16.3 E 3 4 1020.8 - 0.0 - - - - - - -
31/11:00pm 16.5 ENE 5 7 1021.0 - 0.0 - - - - - - -
31/10:30pm 15.9 E 4 5 1021.1 - 0.0 - - - - - - -
31/10:00pm 16.1 SE 4 5 1021.2 - 0.0 - - - - - - -
31/09:30pm 16.4 SE 5 6 1021.3 - 0.0 - - - - - - -
31/09:00pm 16.3 SE 4 6 1021.5 - 0.0 - - - - - - -
31/08:30pm 16.4 ESE 4 5 1021.3 - 0.0 - - - - - - -
31/08:00pm 16.4 ESE 5 7 1021.1 - 0.0 - - - - - - -
31/07:30pm 16.8 E 5 7 1021.1 - 0.0 - - - - - - -
31/07:00pm 17.2 ESE 5 8 1021.3 - 0.0 - - - - - - -
31/06:30pm 17.9 ESE 7 9 1021.0 - 0.0 - - - - - - -
31/06:00pm 18.2 ESE 8 12 1021.0 - 0.0 - - - - - - -
31/05:30pm 18.4 ESE 9 12 1021.2 - 0.0 - - - - - - -
31/05:00pm 18.9 SE 8 12 1021.6 - 0.0 - - - - - - -
31/04:30pm 19.2 SE 8 11 1021.7 - 0.0 - - - - - - -
31/04:00pm 19.4 SE 8 10 1021.9 - 0.0 - - - - - - -
31/03:30pm 19.7 SSE 7 9 1022.3 - 0.0 - - - - - - -
31/03:00pm 19.0 SSE 8 10 1022.5 - 0.0 - - - - - - -
31/02:30pm 18.9 S 8 11 1023.1 - 0.0 - - - - - - -
31/02:00pm 20.1 SE 8 10 1023.1 - 0.0 - - - - - - -
31/01:30pm 19.7 SE 7 9 1023.6 - 0.0 - - - - - - -
31/01:00pm 20.4 ESE 5 7 1024.0 - 0.0 - - - - - - -
31/12:30pm 19.8 E 4 5 1024.4 - 0.0 - - - - - - -
31/12:00pm 18.7 ENE 5 7 1025.1 - 0.0 - - - - - - -
31/11:30am 17.4 NE 6 9 1025.5 - 0.0 - - - - - - -
31/11:00am 15.5 NNE 7 9 1025.9 - 0.0 - - - - - - -
31/10:30am 14.3 NE 6 8 1026.1 - 0.0 - - - - - - -
31/10:00am 13.2 NNE 7 11 1025.9 - 0.0 - - - - - - -
31/09:30am 12.6 NNE 7 10 1025.9 - 0.0 - - - - - - -
31/09:00am 12.1 NNE 4 7 1026.1 - 0.2 - - - - - - -
31/08:30am 10.8 N 3 4 1026.2 - 0.2 - - - - - - -
31/08:00am 10.7 N 3 5 1026.0 - 0.2 - - - - - - -
31/07:30am 11.3 N 4 5 1025.8 - 0.2 - - - - - - -
31/07:00am 12.2 NNE 4 5 1025.5 - 0.2 - - - - - - -
31/06:30am 12.8 N 3 5 1025.4 - 0.0 - - - - - - -
31/06:00am 13.2 N 3 4 1025.3 - 0.0 - - - - - - -
31/05:30am 13.5 NNE 2 3 1025.1 - 0.0 - - - - - - -
31/05:00am 13.4 N 3 4 1025.1 - 0.0 - - - - - - -
31/04:30am 13.4 NNE 3 5 1025.1 - 0.0 - - - - - - -
31/04:00am 13.0 N 2 3 1025.5 - 0.0 - - - - - - -
31/03:30am 12.5 N 2 3 1025.5 - 0.0 - - - - - - -
31/03:00am 11.9 N 2 3 1025.8 - 0.0 - - - - - - -
31/02:30am 12.3 NNE 3 4 1025.9 - 0.0 - - - - - - -
31/02:00am 12.4 NNE 2 3 1025.9 - 0.0 - - - - - - -
31/01:30am 12.9 N 3 3 1026.0 - 0.0 - - - - - - -
31/01:00am 13.1 N 2 2 1026.0 - 0.0 - - - - - - -
31/12:30am 13.1 N 2 3 1026.2 - 0.0 - - - - - - -
31/12:00am 13.6 N 2 2 1026.3 - 0.0 - - - - - - -
 
Date/Time
EDT
Temp

°C
Wind Pressure Rain
since 9am
mm
Weather Cloud Vis
km
Sea
Height
m
Swell
Dir
 
Speed
knots
Gust
knots
hPa Trend Height
m
Period
s
Dir
30/11:30pm 13.4 N 1 2 1026.4 - 0.0 - - - - - - -
30/11:00pm 14.0 ENE 2 2 1026.3 - 0.0 - - - - - - -
30/10:30pm 14.7 NE 1 2 1026.2 - 0.0 - - - - - - -
30/10:00pm 16.1 SW 3 5 1026.1 - 0.0 - - - - - - -
30/09:30pm 16.4 SW 7 9 1026.0 - 0.0 - - - - - - -
30/09:00pm 16.5 SW 6 8 1025.9 - 0.0 - - - - - - -
30/08:30pm 16.6 WSW 6 9 1025.7 - 0.0 - - - - - - -
30/08:00pm 16.9 WSW 6 7 1025.5 - 0.0 - - - - - - -
30/07:30pm 17.3 SW 7 9 1025.4 - 0.0 - - - - - - -
30/07:00pm 17.4 WSW 7 10 1025.1 - 0.0 - - - - - - -
30/06:30pm 17.8 SW 7 10 1024.9 - 0.0 - - - - - - -
30/06:00pm 18.2 SW 6 7 1024.7 - 0.0 - - - - - - -
30/05:30pm 18.7 SW 8 10 1024.4 - 0.0 - - - - - - -
30/05:00pm 18.9 SW 5 7 1024.3 - 0.0 - - - - - - -
30/04:30pm 18.8 SW 5 6 1024.2 - 0.0 - - - - - - -
30/04:00pm 19.1 SW 7 8 1024.3 - 0.0 - - - - - - -
30/03:30pm 19.3 SW 7 9 1024.4 - 0.0 - - - - - - -
30/03:00pm 19.1 SW 5 7 1024.4 - 0.0 - - - - - - -
30/02:30pm 19.6 SW 6 8 1024.6 - 0.0 - - - - - - -
30/02:00pm 19.3 SW 7 10 1024.9 - 0.0 - - - - - - -
30/01:30pm 18.9 WSW 8 10 1025.1 - 0.0 - - - - - - -
30/01:00pm 18.4 WSW 10 13 1025.1 - 0.0 - - - - - - -
30/12:30pm 18.6 WSW 8 11 1025.0 - 0.0 - - - - - - -
30/12:00pm 17.2 SW 5 7 1025.3 - 0.0 - - - - - - -
30/11:30am 17.1 SW 5 7 1025.4 - 0.0 - - - - - - -
30/11:00am 16.8 NW 3 6 1025.3 - 0.0 - - - - - - -
30/10:30am 16.1 NW 5 7 1025.1 - 0.0 - - - - - - -
30/10:00am 15.4 NW 5 8 1024.9 - 0.0 - - - - - - -
30/09:30am 14.2 NNW 3 6 1024.6 - 0.0 - - - - - - -
30/09:00am 11.9 NNW 4 6 1024.4 - 0.0 - - - - - - -
30/08:30am 11.1 NNW 5 7 1024.0 - 0.0 - - - - - - -
30/08:00am 10.3 N 5 9 1023.8 - 0.0 - - - - - - -
30/07:30am 10.3 N 6 7 1023.4 - 0.0 - - - - - - -
30/07:00am 10.7 N 5 7 1023.3 - 0.0 - - - - - - -
30/06:30am 11.6 NNW 3 4 1023.3 - 0.0 - - - - - - -
30/06:00am 11.6 N 3 5 1023.2 - 0.0 - - - - - - -
30/05:30am 11.7 NNW 4 7 1023.0 - 0.0 - - - - - - -
30/05:00am 12.1 NW 3 5 1022.7 - 0.0 - - - - - - -
30/04:30am 11.4 NW 3 5 1022.7 - 0.0 - - - - - - -
30/04:00am 10.8 NNW 4 5 1022.9 - 0.0 - - - - - - -
30/03:30am 10.4 N 4 5 1022.8 - 0.0 - - - - - - -
30/03:00am 10.5 N 4 6 1022.8 - 0.0 - - - - - - -
30/02:30am 10.8 N 5 6 1023.0 - 0.0 - - - - - - -
30/02:00am 11.2 N 4 5 1023.0 - 0.0 - - - - - - -
30/01:30am 11.4 N 5 7 1023.0 - 0.0 - - - - - - -
30/01:00am 11.5 N 4 5 1023.0 - 0.0 - - - - - - -
30/12:30am 11.9 N 4 6 1023.0 - 0.0 - - - - - - -
30/12:00am 12.4 N 4 7 1023.2 - 0.0 - - - - - - -
 
Date/Time
EDT
Temp

°C
Wind Pressure Rain
since 9am
mm
Weather Cloud Vis
km
Sea
Height
m
Swell
Dir
 
Speed
knots
Gust
knots
hPa Trend Height
m
Period
s
Dir
29/11:30pm 12.8 N 4 5 1023.4 - 0.0 - - - - - - -
29/11:00pm 13.2 NNE 2 3 1023.5 - 0.0 - - - - - - -
29/10:30pm 14.0 NNW 1 2 1023.4 - 0.0 - - - - - - -
29/10:00pm 15.2 WNW 2 4 1023.2 - 0.0 - - - - - - -
29/09:30pm 15.9 W 6 9 1023.1 - 0.0 - - - - - - -
29/09:00pm 16.2 WSW 9 11 1022.8 - 0.0 - - - - - - -
29/08:30pm 16.4 WSW 10 12 1022.6 - 0.0 - - - - - - -
29/08:00pm 16.5 WSW 9 12 1022.4 - 0.0 - - - - - - -
29/07:30pm 16.8 WSW 8 10 1022.2 - 0.0 - - - - - - -
29/07:00pm 17.4 WSW 7 10 1021.9 - 0.0 - - - - - - -
29/06:30pm 17.5 WSW 8 10 1021.6 - 0.0 - - - - - - -
29/06:00pm 18.3 WSW 9 13 1021.5 - 0.0 - - - - - - -
29/05:30pm 18.7 SW 9 12 1021.4 - 0.0 - - - - - - -
29/05:00pm 19.6 SW 8 10 1021.3 - 0.0 - - - - - - -
29/04:30pm 19.4 SW 8 10 1021.2 - 0.0 - - - - - - -
29/04:00pm 19.5 SW 8 10 1021.2 - 0.0 - - - - - - -
29/03:30pm 19.7 SW 7 10 1021.4 - 0.0 - - - - - - -
29/03:00pm 19.4 SW 9 11 1021.5 - 0.0 - - - - - - -
29/02:30pm 20.6 SW 7 9 1021.7 - 0.0 - - - - - - -

Other Formats:

Comma delimited format used in spreadsheet applications
http://www.bom.gov.au/fwo/IDV60701/IDV60701.94830.axf

JavaScript Object Notation format (JSON) in row-major order
http://www.bom.gov.au/fwo/IDV60701/IDV60701.94830.json